Flight Track Log - Related Links

Times and Time Zones

All times are in EDT time to prevent confusion due to time zone crossing. See the UAL3744 flight status page for this flight to view local times or setup timezone preferences in your user account.

Time Position Orientation Groundspeed Altitude Reporting Facility
EDT Latitude Longitude Course Direction KTS MPH feet Rate Location/Type
Sun 08:38:30 AM 38.9500 -77.5333 256° West 187 215 2,000  Level Potomac TRACON
Sun 08:39:30 AM 38.9333 -77.6167 256° West 260 299 4,100 2,789 Climbing Potomac TRACON
Sun 08:40:24 AM 38.9000 -77.7000 243° Southwest 244 281 7,300 2,870 Climbing Potomac TRACON
Sun 08:41:25 AM 38.8833 -77.7833 256° West 254 292 9,600 1,776 Climbing Potomac TRACON
Sun 08:42:29 AM 38.8769 -77.8794 265° West 269 310 11,000 1,707 Climbing Washington Center
Sun 08:43:28 AM 38.8708 -77.9914 266° West 292 336 13,100 2,118 Climbing Washington Center
Sun 08:44:28 AM 38.8622 -78.1056 265° West 312 359 15,200 2,000 Climbing Washington Center
Sun 08:45:28 AM 38.8556 -78.2200 266° West 322 371 17,100 1,500 Climbing Washington Center
Sun 08:46:28 AM 38.8528 -78.3372 268° West 327 376 18,200 1,400 Climbing Washington Center
Sun 08:47:28 AM 38.8522 -78.4597 270° West 337 388 19,900 1,600 Climbing Washington Center
Sun 08:48:28 AM 38.8511 -78.5825 269° West 343 395 21,400 1,587 Climbing Washington Center
Sun 08:49:29 AM 38.8500 -78.7103 269° West 353 406 23,100 1,550 Climbing Washington Center
Sun 08:50:28 AM 38.8489 -78.8356 269° West 353 406 24,500 1,311 Climbing Washington Center
Sun 08:51:28 AM 38.8475 -78.9608 269° West 353 406 25,700 1,150 Climbing Washington Center
Sun 08:52:28 AM 38.8439 -79.0858 268° West 353 406 26,800 1,050 Climbing Washington Center
Sun 08:53:28 AM 38.8381 -79.2164 267° West 363 418 27,800 1,000 Climbing Washington Center
Sun 08:54:28 AM 38.8175 -79.3406 258° West 363 418 28,800 900 Climbing Washington Center
Sun 08:55:28 AM 38.7719 -79.4633 245° Southwest 375 432 29,600 885 Climbing Washington Center
Sun 08:56:30 AM 38.7203 -79.5725 239° Southwest 375 432 30,600 950 Climbing Washington Center
Sun 08:57:28 AM 38.6711 -79.6708 237° Southwest 370 426 31,500 915 Climbing Washington Center
Sun 08:58:28 AM 38.6236 -79.7825 241° Southwest 370 426 32,400 800 Climbing Washington Center
Sun 08:59:28 AM 38.5739 -79.8911 240° Southwest 370 426 33,100 650 Climbing Washington Center
Sun 09:00:28 AM 38.5525 -80.0147 258° West 364 419 33,700 700 Climbing Washington Center
Sun 09:01:28 AM 38.5350 -80.1544 261° West 364 419 34,500 650 Climbing Washington Center
Sun 09:02:28 AM 38.5175 -80.2833 260° West 364 419 35,000 216 Climbing Washington Center
Sun 09:03:47 AM 38.4875 -80.4222 255° West 370 426 35,000  Level Indianapolis Center
Sun 09:04:48 AM 38.4567 -80.5681 255° West 382 440 35,000 341 Level Indianapolis Center
Sun 09:05:50 AM 38.4297 -80.7025 256° West 388 447 35,700 488 Climbing Indianapolis Center
Sun 09:06:51 AM 38.4019 -80.8339 255° West 384 442 36,000 148 Climbing Indianapolis Center
Sun 09:07:52 AM 38.3739 -80.9675 255° West 387 445 36,000  Level Indianapolis Center
Sun 09:08:54 AM 38.3458 -81.1006 255° West 386 444 36,000  Level Indianapolis Center
Sun 09:09:56 AM 38.3175 -81.2314 255° West 381 438 36,000  Level Indianapolis Center
Sun 09:10:57 AM 38.2897 -81.3664 255° West 388 447 36,000  Level Indianapolis Center
Sun 09:11:58 AM 38.2600 -81.5014 254° West 393 452 36,000  Level Indianapolis Center
Sun 09:12:59 AM 38.2297 -81.6369 254° West 394 453 36,000  Level Indianapolis Center
Sun 09:14:01 AM 38.2019 -81.7711 255° West 391 450 36,000  Level Indianapolis Center
Sun 09:15:02 AM 38.1669 -81.9306 254° West 388 447 36,000  Level Indianapolis Center
Sun 09:16:04 AM 38.1375 -82.0636 254° West 391 450 36,000  Level Indianapolis Center
Sun 09:17:05 AM 38.1094 -82.1967 255° West 389 448 36,000  Level Indianapolis Center
Sun 09:18:07 AM 38.0822 -82.3164 254° West 386 444 36,000  Level Indianapolis Center
Sun 09:19:08 AM 38.0467 -82.4733 254° West 395 455 36,000  Level Indianapolis Center
Sun 09:20:10 AM 38.0167 -82.6075 254° West 396 456 36,000  Level Indianapolis Center
Sun 09:21:11 AM 37.9864 -82.7411 254° West 395 455 36,000  Level Indianapolis Center
Sun 09:22:13 AM 37.9561 -82.8764 254° West 398 458 36,000  Level Indianapolis Center
Sun 09:23:14 AM 37.9250 -83.0072 253° West 391 450 36,000  Level Indianapolis Center
Sun 09:24:15 AM 37.8947 -83.1394 254° West 392 451 36,000  Level Indianapolis Center
Sun 09:25:17 AM 37.8644 -83.2717 254° West 391 450 36,000  Level Indianapolis Center
Sun 09:26:18 AM 37.8283 -83.4256 253° West 391 450 36,000  Level Indianapolis Center
Sun 09:27:20 AM 37.7969 -83.5572 253° West 393 452 36,000  Level Indianapolis Center
Sun 09:28:22 AM 37.7653 -83.6922 254° West 399 459 36,000  Level Indianapolis Center
Sun 09:29:23 AM 37.7333 -83.8256 253° West 399 459 36,000  Level Indianapolis Center
Sun 09:30:25 AM 37.7006 -83.9586 253° West 398 458 36,000  Level Indianapolis Center
Sun 09:31:26 AM 37.6686 -84.0931 253° West 400 460 36,000  Level Indianapolis Center
Sun 09:32:28 AM 37.6328 -84.2264 251° West 401 461 36,000  Level Indianapolis Center
Sun 09:33:29 AM 37.5844 -84.3808 248° West 403 464 36,000  Level Indianapolis Center
Sun 09:34:31 AM 37.5444 -84.5103 249° West 398 458 36,000  Level Indianapolis Center
Sun 09:35:32 AM 37.5047 -84.6397 249° West 398 458 36,000  Level Indianapolis Center
Sun 09:36:34 AM 37.4650 -84.7675 249° West 394 453 36,000  Level Indianapolis Center
Sun 09:37:35 AM 37.4253 -84.8964 249° West 395 455 36,000  Level Indianapolis Center
Sun 09:38:37 AM 37.3839 -85.0278 248° West 402 463 36,000  Level Indianapolis Center
Sun 09:39:38 AM 37.3431 -85.1569 248° West 398 458 36,000  Level Indianapolis Center
Sun 09:40:40 AM 37.2947 -85.3092 248° West 401 461 36,000  Level Indianapolis Center
Sun 09:41:41 AM 37.2528 -85.4394 248° West 401 461 36,000  Level Indianapolis Center
Sun 09:42:43 AM 37.2167 -85.5533 248° West 401 461 36,000  Level Indianapolis Center
Sun 09:43:46 AM 37.1678 -85.7106 249° West 401 461 36,000  Level Memphis Center
Sun 09:44:46 AM 37.1244 -85.8381 247° West 406 467 36,000  Level Memphis Center
Sun 09:45:46 AM 37.0833 -85.9703 249° West 406 467 36,000  Level Memphis Center
Sun 09:46:46 AM 37.0403 -86.1025 248° West 406 467 36,000  Level Memphis Center
Sun 09:47:46 AM 36.9858 -86.2250 241° Southwest 406 467 36,000  Level Memphis Center
Sun 09:48:46 AM 36.9139 -86.3142 225° Southwest 406 467 36,000  Level Memphis Center
Sun 09:49:46 AM 36.8336 -86.4117 224° Southwest 407 468 36,000 150 Level Memphis Center
Sun 09:50:46 AM 36.7533 -86.5114 225° Southwest 407 468 36,300 600 Climbing Memphis Center
Sun 09:51:46 AM 36.7008 -86.6303 241° Southwest 380 437 37,200 800 Climbing Memphis Center
Sun 09:52:46 AM 36.6586 -86.7539 247° West 385 443 37,900 400 Climbing Memphis Center
Sun 09:53:46 AM 36.6164 -86.8772 247° West 390 449 38,000 50 Climbing Memphis Center
Sun 09:54:46 AM 36.5761 -87.0056 249° West 390 449 38,000  Level Memphis Center
Sun 09:55:46 AM 36.5336 -87.1339 248° West 395 455 38,000  Level Memphis Center
Sun 09:56:46 AM 36.4889 -87.2622 247° West 400 460 38,000  Level Memphis Center
Sun 09:57:46 AM 36.4419 -87.3931 246° West 400 460 38,000  Level Memphis Center
Sun 09:58:46 AM 36.3992 -87.5233 248° West 405 466 38,000  Level Memphis Center
Sun 09:59:46 AM 36.3522 -87.6539 246° West 410 472 38,000  Level Memphis Center
Sun 10:00:46 AM 36.3011 -87.7997 247° West 415 478 38,000  Level Memphis Center
Sun 10:01:46 AM 36.2578 -87.9300 248° West 421 484 38,000  Level Memphis Center
Sun 10:02:46 AM 36.2081 -88.0625 245° Southwest 421 484 38,000  Level Memphis Center
Sun 10:03:46 AM 36.1667 -88.1897 248° West 408 470 38,000  Level Memphis Center
Sun 10:04:46 AM 36.1211 -88.3219 247° West 408 470 38,000  Level Memphis Center
Sun 10:05:46 AM 36.0731 -88.4542 246° West 414 476 38,000  Level Memphis Center
Sun 10:06:46 AM 36.0250 -88.5836 245° Southwest 414 476 38,000  Level Memphis Center
Sun 10:07:46 AM 35.9789 -88.7153 247° West 419 482 38,000  Level Memphis Center
Sun 10:08:46 AM 35.9303 -88.8472 246° West 419 482 38,000  Level Memphis Center
Sun 10:09:46 AM 35.8900 -88.9631 247° West 419 482 38,000  Level Memphis Center
Sun 10:10:46 AM 35.8394 -89.0972 245° Southwest 419 482 38,000  Level Memphis Center
Sun 10:11:46 AM 35.7928 -89.2283 246° West 419 482 38,000  Level Memphis Center
Sun 10:12:46 AM 35.7439 -89.3619 246° West 419 482 38,000  Level Memphis Center
Sun 10:13:46 AM 35.6969 -89.4956 247° West 419 482 38,000  Level Memphis Center
Sun 10:14:46 AM 35.6539 -89.6264 248° West 419 482 38,000  Level Memphis Center
Sun 10:15:46 AM 35.6067 -89.7594 246° West 419 482 38,000  Level Memphis Center
Sun 10:16:46 AM 35.5550 -89.8925 245° Southwest 425 489 38,000  Level Memphis Center
Sun 10:17:46 AM 35.5075 -90.0281 247° West 430 495 38,000  Level Memphis Center
Sun 10:18:46 AM 35.4536 -90.1736 246° West 430 495 38,000  Level Memphis Center
Sun 10:19:46 AM 35.4036 -90.3036 245° Southwest 425 489 38,000  Level Memphis Center
Sun 10:20:46 AM 35.3558 -90.4333 246° West 420 483 38,000  Level Memphis Center
Sun 10:21:46 AM 35.3033 -90.5683 245° Southwest 420 483 38,000  Level Memphis Center
Sun 10:22:46 AM 35.2531 -90.7028 245° Southwest 425 489 38,000  Level Memphis Center
Sun 10:23:46 AM 35.2047 -90.8322 245° Southwest 420 483 38,000  Level Memphis Center
Sun 10:24:46 AM 35.1539 -90.9642 245° Southwest 426 490 38,000  Level Memphis Center
Sun 10:25:46 AM 35.1033 -91.0958 245° Southwest 424 488 38,000  Level Memphis Center
Sun 10:26:46 AM 35.0544 -91.2222 245° Southwest 424 488 38,000  Level Memphis Center
Sun 10:27:46 AM 35.0056 -91.3533 246° West 424 488 38,000  Level Memphis Center
Sun 10:28:46 AM 34.9522 -91.4794 243° Southwest 418 481 38,000  Level Memphis Center
Sun 10:29:46 AM 34.9031 -91.6106 245° Southwest 423 487 38,000  Level Memphis Center
Sun 10:30:46 AM 34.8475 -91.7411 243° Southwest 428 493 38,000  Level Memphis Center
Sun 10:31:46 AM 34.7981 -91.8719 245° Southwest 428 493 38,000  Level Memphis Center
Sun 10:32:46 AM 34.7547 -91.9875 245° Southwest 423 487 38,000  Level Memphis Center
Sun 10:33:46 AM 34.7008 -92.1178 243° Southwest 423 487 38,000  Level Memphis Center
Sun 10:34:46 AM 34.6572 -92.2533 249° West 423 487 38,000  Level Memphis Center
Sun 10:35:46 AM 34.6236 -92.3861 253° West 423 487 38,000  Level Memphis Center
Sun 10:36:46 AM 34.5858 -92.5242 252° West 423 487 38,000  Level Memphis Center
Sun 10:37:46 AM 34.5503 -92.6569 252° West 423 487 38,000  Level Memphis Center
Sun 10:38:46 AM 34.5142 -92.7944 252° West 423 487 38,000  Level Memphis Center
Sun 10:39:46 AM 34.4758 -92.9344 252° West 423 487 38,000  Level Memphis Center
Sun 10:40:46 AM 34.4397 -93.0669 252° West 423 487 38,000  Level Memphis Center
Sun 10:41:46 AM 34.4033 -93.2017 252° West 423 487 38,000  Level Memphis Center
Sun 10:42:46 AM 34.3667 -93.3389 252° West 423 487 38,000  Level Memphis Center
Sun 10:43:54 AM 34.3272 -93.4956 253° West 407 468 38,000  Level Fort Worth Center
Sun 10:44:54 AM 34.2917 -93.6306 252° West 417 480 38,000  Level Fort Worth Center
Sun 10:45:54 AM 34.2539 -93.7678 252° West 422 486 38,000  Level Fort Worth Center
Sun 10:46:54 AM 34.2161 -93.9025 251° West 427 491 38,000  Level Fort Worth Center
Sun 10:47:54 AM 34.1758 -94.0322 249° West 427 491 38,000 -300 Level Fort Worth Center
Sun 10:48:54 AM 34.1314 -94.1617 248° West 427 491 37,400 -1,000 Descending Fort Worth Center
Sun 10:49:54 AM 34.0967 -94.2758 250° West 401 461 36,000 -1,700 Descending Fort Worth Center
Sun 10:50:54 AM 34.0597 -94.3900 249° West 382 440 34,000 -2,000 Descending Fort Worth Center
Sun 10:51:54 AM 34.0208 -94.5117 249° West 377 434 32,000 -2,000 Descending Fort Worth Center
Sun 10:52:54 AM 33.9800 -94.6383 249° West 388 447 30,000 -2,000 Descending Fort Worth Center
Sun 10:53:54 AM 33.9367 -94.7622 247° West 399 459 28,000 -2,000 Descending Fort Worth Center
Sun 10:54:54 AM 33.8933 -94.8914 248° West 409 471 26,000 -1,950 Descending Fort Worth Center
Sun 10:55:54 AM 33.8522 -95.0200 249° West 414 476 24,100 -1,000 Descending Fort Worth Center
Sun 10:56:54 AM 33.8086 -95.1461 247° West 414 476 24,000 -50 Descending Fort Worth Center
Sun 10:57:54 AM 33.7669 -95.2722 248° West 414 476 24,000  Level Fort Worth Center
Sun 10:58:54 AM 33.7231 -95.3956 247° West 414 476 24,000  Level Fort Worth Center
Sun 10:59:54 AM 33.6833 -95.5189 249° West 409 471 24,000 -250 Level Fort Worth Center
Sun 11:00:54 AM 33.6475 -95.6419 251° West 403 464 23,500 -1,300 Descending Fort Worth Center
Sun 11:01:54 AM 33.6033 -95.7600 246° West 390 449 21,400 -2,150 Descending Fort Worth Center
Sun 11:02:54 AM 33.5650 -95.8778 249° West 390 449 19,200 -2,100 Descending Fort Worth Center
Sun 11:03:54 AM 33.5267 -95.9906 248° West 379 436 17,200 -2,050 Descending Fort Worth Center
Sun 11:04:54 AM 33.4903 -96.1008 248° West 345 397 15,100 -1,900 Descending Fort Worth Center
Sun 11:05:54 AM 33.4600 -96.1883 247° West 327 376 13,400 -1,650 Descending Fort Worth Center
Sun 11:06:54 AM 33.4192 -96.2961 246° West 321 369 11,800 -1,200 Descending Fort Worth Center
Sun 11:07:54 AM 33.3675 -96.3689 230° Southwest 321 369 11,000 -850 Descending Fort Worth Center
Sun 11:08:54 AM 33.3328 -96.4661 247° West 301 346 10,100 -1,150 Descending Fort Worth Center
Sun 11:09:54 AM 33.3064 -96.5433 248° West 288 331 8,700 -1,450 Descending Fort Worth Center
Sun 11:10:54 AM 33.2778 -96.6283 248° West 281 323 7,200 -1,550 Descending Fort Worth Center
Sun 11:11:54 AM 33.2447 -96.7206 247° West 276 318 5,600 -1,100 Descending Fort Worth Center
Sun 11:12:54 AM 33.2222 -96.7925 250° West 266 306 5,000 -550 Descending Fort Worth Center
Sun 11:13:54 AM 33.1994 -96.8647 249° West 245 282 4,500 -500 Descending Fort Worth Center
Sun 11:14:54 AM 33.1747 -96.9319 246° West 234 269 4,000 -550 Descending Fort Worth Center
Sun 11:15:54 AM 33.1519 -96.9867 244° Southwest 198 228 3,400 -500 Descending Fort Worth Center
Sun 11:16:54 AM 33.1083 -97.0192 212° Southwest 178 205 3,000 -261 Descending Fort Worth Center
Sun 11:17:26 AM 33.0833 -97.0333 205° Southwest 158 182 3,000  Level Dallas / Fort Worth TRACON
Sun 11:18:27 AM 33.0500 -97.0333 180° South 153 176 3,000 -313 Level Dallas / Fort Worth TRACON
Sun 11:19:21 AM 33.0000 -97.0333 180° South 156 180 2,400 -722 Descending Dallas / Fort Worth TRACON
Sun 11:20:15 AM 32.9667 -97.0333 180° South 129 148 1,700 -737 Descending Dallas / Fort Worth TRACON
Sun 11:21:15 AM 32.9333 -97.0333 180° South 127 146 1,000 -700 Descending Dallas / Fort Worth TRACON
Sun 11:23:00 AM 32.8968 -97.0380 180° South  Level Estimated
Sun 11:30:00 AM 32.8968 -97.0380 180° South  Level Estimated

Login

Don't have an account? Register now (free) for customized features, flight alerts, and more!